Time;durP1;ratioP1;P1;durP2;ratioP2;P2;SDS_P1;SDS_P2;PMS_P1;PMS_P2;Temp;Humidity;BMP_temperature;BMP_pressure;BME280_temperature;BME280_humidity;BME280_pressure;Samples;Min_cycle;Max_cycle;Signal;HPM_P1;HPM_P2
2023/01/26 00:02:07;;;;;;;29.58;6.35;;;;;;;4.28;100.00;102536.69;5085631;28;20060;-80
2023/01/26 00:04:32;;;;;;;26.13;5.25;;;;;;;4.29;100.00;102528.78;5036941;28;20040;-80
2023/01/26 00:06:58;;;;;;;25.17;5.28;;;;;;;4.32;100.00;102530.44;5053328;28;20531;-80
2023/01/26 00:09:24;;;;;;;29.73;5.18;;;;;;;4.40;100.00;102527.56;5018031;28;21277;-80
2023/01/26 00:11:50;;;;;;;31.38;5.68;;;;;;;4.44;100.00;102530.00;5058540;28;20111;-80
2023/01/26 00:14:15;;;;;;;23.88;4.25;;;;;;;4.48;100.00;102536.00;5017812;28;20033;-80
2023/01/26 00:16:42;;;;;;;22.75;4.55;;;;;;;4.57;100.00;102534.84;5059801;28;20036;-80
2023/01/26 00:19:07;;;;;;;16.90;3.13;;;;;;;4.68;100.00;102530.06;5036534;28;20037;-81
2023/01/26 00:21:33;;;;;;;22.17;3.00;;;;;;;4.85;100.00;102531.25;5058044;28;20049;-81
2023/01/26 00:23:59;;;;;;;10.27;2.40;;;;;;;4.97;100.00;102516.84;5040149;28;20113;-80
2023/01/26 00:26:26;;;;;;;11.18;2.47;;;;;;;5.11;100.00;102521.59;5043768;28;20047;-80
2023/01/26 00:28:52;;;;;;;21.35;2.65;;;;;;;5.20;100.00;102523.88;5049449;28;20115;-81
2023/01/26 00:31:21;;;;;;;14.98;3.28;;;;;;;5.30;100.00;102532.22;5047147;28;20059;-80
2023/01/26 00:33:47;;;;;;;17.02;3.00;;;;;;;5.35;100.00;102539.94;5038483;28;20076;-81
2023/01/26 00:36:12;;;;;;;24.30;3.65;;;;;;;5.42;100.00;102538.78;5017266;28;20047;-81
2023/01/26 00:38:40;;;;;;;15.82;2.40;;;;;;;5.47;100.00;102517.63;5059762;28;20033;-80
2023/01/26 00:42:05;;;;;;;19.30;3.08;;;;;;;5.51;100.00;102516.59;5051710;28;20036;-81
2023/01/26 00:43:55;;;;;;;30.15;3.88;;;;;;;5.53;100.00;102519.16;5056178;28;20020;-81
2023/01/26 00:46:21;;;;;;;26.80;4.03;;;;;;;5.58;100.00;102515.44;5039902;28;20055;-81
2023/01/26 00:48:46;;;;;;;21.13;3.35;;;;;;;5.57;100.00;102508.47;5027014;28;20044;-81
2023/01/26 00:51:12;;;;;;;21.77;3.35;;;;;;;5.61;100.00;102509.22;5044522;28;20032;-80
2023/01/26 00:53:38;;;;;;;16.30;2.50;;;;;;;5.62;100.00;102496.97;5043827;28;20036;-81
2023/01/26 00:56:04;;;;;;;14.98;2.95;;;;;;;5.65;100.00;102505.59;5007651;28;20025;-80
2023/01/26 00:58:32;;;;;;;23.98;3.95;;;;;;;5.67;100.00;102502.91;5024258;28;20032;-80
2023/01/26 01:00:57;;;;;;;18.33;2.45;;;;;;;5.69;100.00;102509.78;5013611;28;20029;-80
2023/01/26 01:03:23;;;;;;;19.33;3.53;;;;;;;5.71;100.00;102518.44;5059011;28;20060;-80
2023/01/26 01:05:50;;;;;;;16.05;2.92;;;;;;;5.75;100.00;102513.09;5064436;28;20033;-80
2023/01/26 01:08:16;;;;;;;28.02;3.95;;;;;;;5.73;100.00;102513.16;5045001;28;20028;-80
2023/01/26 01:10:41;;;;;;;16.38;3.90;;;;;;;5.75;100.00;102511.28;5055525;28;20565;-80
2023/01/26 01:13:07;;;;;;;24.88;3.05;;;;;;;5.74;100.00;102514.84;5048898;28;20134;-80
2023/01/26 01:15:33;;;;;;;13.68;2.58;;;;;;;5.78;100.00;102512.97;5042574;28;20040;-80
2023/01/26 01:17:59;;;;;;;20.77;4.43;;;;;;;5.79;100.00;102515.53;5055631;28;20025;-80
2023/01/26 01:20:24;;;;;;;16.25;3.05;;;;;;;5.78;100.00;102524.28;5059876;28;20087;-80
2023/01/26 01:22:51;;;;;;;18.20;3.42;;;;;;;5.77;100.00;102522.59;5042489;28;20392;-80
2023/01/26 01:25:16;;;;;;;13.93;2.40;;;;;;;5.79;100.00;102527.78;5025507;28;20045;-80
2023/01/26 01:27:42;;;;;;;23.63;2.95;;;;;;;5.79;100.00;102528.66;5054932;28;20051;-80
2023/01/26 01:30:09;;;;;;;20.20;3.90;;;;;;;5.79;100.00;102527.78;5030914;28;20067;-80
2023/01/26 01:32:35;;;;;;;14.25;2.60;;;;;;;5.81;100.00;102526.78;5045798;28;20064;-81
2023/01/26 01:35:01;;;;;;;17.50;3.20;;;;;;;5.80;100.00;102524.22;5029590;28;20034;-80
2023/01/26 01:37:28;;;;;;;19.10;2.83;;;;;;;5.81;100.00;102529.41;5046341;28;20080;-80
2023/01/26 01:39:54;;;;;;;19.92;2.83;;;;;;;5.79;100.00;102526.03;5043363;28;20036;-80
2023/01/26 01:42:21;;;;;;;24.33;3.67;;;;;;;5.81;100.00;102532.03;5021600;28;20048;-80
2023/01/26 01:45:22;;;;;;;15.38;2.50;;;;;;;5.81;100.00;102520.72;5010689;28;20482;-80
2023/01/26 01:47:48;;;;;;;17.70;2.67;;;;;;;5.77;100.00;102519.09;5054839;28;20037;-81
2023/01/26 01:50:17;;;;;;;24.25;3.38;;;;;;;5.77;100.00;102511.22;5056707;28;20033;-80
2023/01/26 01:52:43;;;;;;;18.08;2.63;;;;;;;5.74;100.00;102509.59;5010032;28;20036;-81
2023/01/26 01:55:13;;;;;;;22.63;3.03;;;;;;;5.72;100.00;102498.28;5051216;28;20083;-81
2023/01/26 01:57:59;;;;;;;20.17;3.70;;;;;;;5.73;100.00;102514.91;5036043;28;20035;-80
2023/01/26 02:00:26;;;;;;;13.45;2.17;;;;;;;5.74;100.00;102525.34;5035919;28;20029;-80
2023/01/26 02:03:13;;;;;;;16.65;2.15;;;;;;;5.78;100.00;102526.91;5039559;28;20037;-80
2023/01/26 02:05:54;;;;;;;14.00;2.55;;;;;;;5.79;100.00;102514.66;5021834;28;20033;-80
2023/01/26 02:08:24;;;;;;;21.17;3.10;;;;;;;5.82;100.00;102515.41;5049198;28;20511;-80
2023/01/26 02:10:54;;;;;;;12.82;2.72;;;;;;;5.80;100.00;102511.09;5041411;28;20627;-80
2023/01/26 02:13:21;;;;;;;9.07;1.30;;;;;;;5.78;100.00;102505.09;5044074;28;20052;-80
2023/01/26 02:15:47;;;;;;;14.27;3.08;;;;;;;5.81;100.00;102503.16;5032241;28;20032;-80
2023/01/26 02:18:15;;;;;;;8.30;1.65;;;;;;;5.76;100.00;102504.28;5049654;28;20048;-80
2023/01/26 02:21:11;;;;;;;14.35;2.35;;;;;;;5.86;100.00;102507.41;5040993;28;20067;-80
2023/01/26 02:23:54;;;;;;;;;;;;;;;5.81;100.00;102516.28;5044240;28;20033;-80
2023/01/26 02:26:26;;;;;;;16.73;3.17;;;;;;;5.83;100.00;102514.47;5010917;28;20352;-80
2023/01/26 02:28:54;;;;;;;21.98;3.47;;;;;;;5.88;100.00;102511.66;5036142;28;20036;-80
2023/01/26 02:31:21;;;;;;;14.82;2.70;;;;;;;5.90;100.00;102519.47;5030877;28;20490;-80
2023/01/26 02:33:47;;;;;;;22.45;3.72;;;;;;;5.84;100.00;102516.16;5048220;28;20489;-80
2023/01/26 02:36:20;;;;;;;18.90;3.53;;;;;;;5.86;100.00;102516.09;5031193;28;20068;-80
2023/01/26 02:39:08;;;;;;;22.15;3.15;;;;;;;5.85;100.00;102514.41;5023434;28;20576;-80
2023/01/26 02:44:19;;;;;;;24.00;2.92;;;;;;;5.81;100.00;102520.72;5010456;28;20060;-80
2023/01/26 02:46:45;;;;;;;18.70;2.80;;;;;;;5.82;100.00;102512.78;5019399;28;20390;-81
2023/01/26 02:51:56;;;;;;;18.83;3.05;;;;;;;5.81;100.00;102507.59;5028291;28;20175;-80
2023/01/26 02:57:07;;;;;;;21.23;2.35;;;;;;;5.82;100.00;102525.03;5015503;28;20038;-81
2023/01/26 02:59:33;;;;;;;24.73;4.03;;;;;;;5.83;100.00;102529.34;5008096;28;20041;-80
2023/01/26 03:01:59;;;;;;;36.88;6.68;;;;;;;5.80;100.00;102517.22;5009658;28;20028;-80
2023/01/26 03:04:25;;;;;;;24.50;3.33;;;;;;;5.80;100.00;102508.47;5031792;28;20497;-81
2023/01/26 03:06:51;;;;;;;23.80;4.72;;;;;;;5.72;100.00;102498.28;5020331;28;20048;-80
2023/01/26 03:09:17;;;;;;;10.38;2.33;;;;;;;5.70;100.00;102493.09;5011430;28;20037;-81
2023/01/26 03:11:43;;;;;;;28.73;3.40;;;;;;;5.70;100.00;102500.97;5029752;28;20040;-81
2023/01/26 03:14:14;;;;;;;19.23;2.70;;;;;;;5.72;100.00;102519.28;5028274;28;20033;-80
2023/01/26 03:16:40;;;;;;;19.67;2.78;;;;;;;5.71;100.00;102525.47;5032962;28;20157;-80
2023/01/26 03:27:27;;;;;;;23.90;2.80;;;;;;;5.69;100.00;102527.28;5016225;28;20452;-81
2023/01/26 03:29:56;;;;;;;23.88;3.38;;;;;;;5.69;100.00;102522.91;5030548;28;20029;-80
2023/01/26 03:32:23;;;;;;;23.83;2.88;;;;;;;5.66;100.00;102509.03;5048145;28;20137;-83
2023/01/26 03:34:49;;;;;;;19.80;2.90;;;;;;;5.63;100.00;102504.78;5000775;28;20044;-81
2023/01/26 03:37:21;;;;;;;18.10;3.45;;;;;;;5.61;100.00;102527.59;5011583;28;20033;-81
2023/01/26 03:56:39;;;;;;;10.32;1.70;;;;;;;5.70;100.00;102523.75;5034676;28;19956;-81
2023/01/26 03:59:14;;;;;;;18.75;2.70;;;;;;;5.71;100.00;102513.19;5031224;28;20538;-81
2023/01/26 04:10:00;;;;;;;18.00;2.88;;;;;;;5.74;100.00;102503.47;5042811;28;20031;-81
2023/01/26 04:12:25;;;;;;;15.57;2.42;;;;;;;5.75;100.00;102497.34;5030349;28;20033;-81
2023/01/26 04:23:34;;;;;;;22.45;2.97;;;;;;;5.79;100.00;102517.28;5038697;28;20036;-81
2023/01/26 04:25:59;;;;;;;18.95;2.35;;;;;;;5.79;100.00;102512.03;5030196;28;20055;-81
2023/01/26 04:28:25;;;;;;;15.23;2.72;;;;;;;5.77;100.00;102519.97;5046332;28;20424;-81
2023/01/26 04:30:51;;;;;;;22.95;4.07;;;;;;;5.78;100.00;102515.59;5016033;28;20032;-81
2023/01/26 04:33:17;;;;;;;12.52;2.47;;;;;;;5.75;100.00;102503.41;5031716;28;20416;-81
2023/01/26 04:35:43;;;;;;;16.42;2.35;;;;;;;5.74;100.00;102509.59;5040885;28;20032;-81
2023/01/26 04:38:09;;;;;;;19.85;3.00;;;;;;;5.75;100.00;102531.44;5045719;28;20045;-81
2023/01/26 04:40:37;;;;;;;7.07;1.85;;;;;;;5.79;100.00;102541.75;5036244;28;20045;-81
2023/01/26 04:43:03;;;;;;;20.67;2.47;;;;;;;5.84;100.00;102546.81;5053535;28;20037;-81
2023/01/26 04:45:29;;;;;;;14.75;2.20;;;;;;;5.92;100.00;102538.66;5054690;28;20607;-81
2023/01/26 04:47:55;;;;;;;18.23;3.15;;;;;;;5.95;100.00;102533.28;5058544;28;20028;-81
2023/01/26 04:50:20;;;;;;;16.48;2.67;;;;;;;5.91;100.00;102529.06;5046653;28;20032;-81
2023/01/26 04:52:46;;;;;;;17.58;2.60;;;;;;;5.91;100.00;102534.31;5039302;28;20029;-81
2023/01/26 04:55:13;;;;;;;16.27;2.78;;;;;;;5.82;100.00;102528.53;5022690;28;20045;-81
2023/01/26 04:57:41;;;;;;;16.10;2.78;;;;;;;5.79;100.00;102535.66;5054095;28;20033;-81
2023/01/26 05:00:09;;;;;;;16.23;2.10;;;;;;;5.75;100.00;102527.03;5040405;28;20033;-81
2023/01/26 05:02:35;;;;;;;20.00;3.47;;;;;;;5.73;100.00;102528.88;5061328;28;20177;-81
2023/01/26 05:05:01;;;;;;;25.13;3.78;;;;;;;5.74;100.00;102530.59;5044542;28;20108;-80
2023/01/26 05:07:28;;;;;;;15.57;3.10;;;;;;;5.75;100.00;102532.28;5041760;28;20038;-81
2023/01/26 05:09:54;;;;;;;16.58;2.38;;;;;;;5.77;100.00;102526.97;5040947;28;20040;-80
2023/01/26 05:12:49;;;;;;;19.60;2.15;;;;;;;5.76;100.00;102525.28;5032947;28;20056;-80
2023/01/26 05:15:45;;;;;;;23.73;3.30;;;;;;;5.82;100.00;102538.16;5044448;28;20343;-81
2023/01/26 05:18:17;;;;;;;18.85;3.17;;;;;;;5.81;100.00;102536.44;5051692;28;20162;-80
2023/01/26 05:20:53;;;;;;;;;;;;;;;5.77;100.00;102532.22;5038832;28;20094;-81
2023/01/26 05:23:25;;;;;;;17.30;3.42;;;;;;;5.71;100.00;102520.22;5029769;28;20449;-80
2023/01/26 05:26:08;;;;;;;20.83;3.47;;;;;;;5.64;100.00;102506.47;5064124;28;20045;-81
2023/01/26 05:28:50;;;;;;;17.02;2.67;;;;;;;5.54;100.00;102511.22;5028631;28;20040;-81
2023/01/26 05:31:16;;;;;;;24.60;2.95;;;;;;;5.53;100.00;102508.66;5050357;28;20464;-81
2023/01/26 05:33:42;;;;;;;22.02;4.65;;;;;;;5.53;100.00;102513.91;5033557;28;20024;-81
2023/01/26 05:36:11;;;;;;;17.75;2.88;;;;;;;5.51;100.00;102513.97;5026923;28;20121;-81
2023/01/26 05:38:37;;;;;;;21.55;3.33;;;;;;;5.45;100.00;102508.97;5038932;28;21351;-80
2023/01/26 05:41:05;;;;;;;15.18;3.80;;;;;;;5.48;100.00;102514.09;5041248;28;20032;-80
2023/01/26 05:43:39;;;;;;;25.52;4.32;;;;;;;5.44;100.00;102513.38;5037528;28;20037;-81
2023/01/26 05:46:28;;;;;;;16.23;2.88;;;;;;;5.42;100.00;102514.31;5060669;28;20032;-80
2023/01/26 05:48:54;;;;;;;20.48;2.75;;;;;;;5.40;100.00;102519.63;5046890;28;20495;-81
2023/01/26 05:51:20;;;;;;;25.55;3.72;;;;;;;5.39;100.00;102517.94;5022601;28;20037;-81
2023/01/26 05:53:45;;;;;;;20.17;3.58;;;;;;;5.38;100.00;102504.88;5040436;28;20044;-81
2023/01/26 05:56:12;;;;;;;25.00;2.65;;;;;;;5.34;100.00;102512.00;5027428;28;20036;-81
2023/01/26 05:58:42;;;;;;;16.88;2.90;;;;;;;5.30;100.00;102508.63;5029677;28;20040;-81
2023/01/26 06:01:10;;;;;;;16.00;3.20;;;;;;;5.29;100.00;102514.78;5035187;28;20479;-81
2023/01/26 06:03:45;;;;;;;23.92;2.90;;;;;;;5.28;100.00;102523.59;5054515;28;20024;-81
2023/01/26 06:06:10;;;;;;;22.85;3.22;;;;;;;5.30;100.00;102526.16;5033436;28;20074;-81
2023/01/26 06:08:44;;;;;;;16.15;2.95;;;;;;;5.29;100.00;102524.41;5047015;28;20386;-81
2023/01/26 06:11:30;;;;;;;15.43;3.22;;;;;;;5.28;100.00;102510.47;5060528;28;20037;-81
2023/01/26 06:14:17;;;;;;;18.58;3.50;;;;;;;5.27;100.00;102516.59;5031815;28;20052;-81
2023/01/26 06:16:43;;;;;;;13.30;2.25;;;;;;;5.25;100.00;102518.47;5049763;28;20033;-81
2023/01/26 06:19:10;;;;;;;19.50;2.60;;;;;;;5.28;100.00;102527.97;5056883;28;20059;-81
2023/01/26 06:21:37;;;;;;;16.27;3.03;;;;;;;5.29;100.00;102535.78;5044999;28;20036;-81
2023/01/26 06:24:03;;;;;;;20.33;3.10;;;;;;;5.32;100.00;102537.41;5027412;28;20048;-81
2023/01/26 06:26:32;;;;;;;22.00;3.40;;;;;;;5.27;100.00;102527.09;5054366;28;20048;-80
2023/01/26 06:29:04;;;;;;;22.02;2.92;;;;;;;5.23;100.00;102530.75;4997866;28;20044;-80
2023/01/26 06:31:35;;;;;;;25.40;3.20;;;;;;;5.26;100.00;102541.13;5007233;28;20057;-81
2023/01/26 06:34:04;;;;;;;17.08;3.03;;;;;;;5.22;100.00;102545.63;5035979;28;20037;-81
2023/01/26 06:36:31;;;;;;;31.05;3.70;;;;;;;5.26;100.00;102549.00;5026954;28;20047;-81
2023/01/26 06:38:58;;;;;;;19.17;3.78;;;;;;;5.28;100.00;102538.44;5025794;28;20037;-80
2023/01/26 06:41:24;;;;;;;16.55;2.67;;;;;;;5.25;100.00;102528.09;5038059;28;20052;-81
2023/01/26 06:43:49;;;;;;;16.70;2.80;;;;;;;5.18;100.00;102514.34;5043925;28;20059;-81
2023/01/26 06:46:16;;;;;;;18.15;2.80;;;;;;;5.08;100.00;102522.56;5041399;28;20036;-81
2023/01/26 06:48:44;;;;;;;20.90;3.83;;;;;;;5.04;100.00;102531.44;5027679;28;20511;-80
2023/01/26 06:51:16;;;;;;;21.05;2.42;;;;;;;5.02;100.00;102530.63;5024170;28;20040;-81
2023/01/26 06:53:53;;;;;;;19.80;2.85;;;;;;;4.96;100.00;102528.25;5011014;28;20102;-81
2023/01/26 06:56:30;;;;;;;22.08;3.33;;;;;;;4.92;100.00;102518.78;5018471;28;20111;-81
2023/01/26 06:59:17;;;;;;;23.08;3.13;;;;;;;4.90;100.00;102526.72;5012618;28;20053;-81
2023/01/26 07:02:18;;;;;;;19.70;2.78;;;;;;;4.93;100.00;102544.09;5000151;28;20501;-81
2023/01/26 07:04:44;;;;;;;19.33;3.63;;;;;;;4.90;100.00;102549.44;5030185;28;20033;-81
2023/01/26 07:07:10;;;;;;;13.25;2.40;;;;;;;4.84;100.00;102542.66;5006595;28;20029;-81
2023/01/26 07:09:36;;;;;;;23.27;3.17;;;;;;;4.83;100.00;102546.16;5047161;28;20039;-81
2023/01/26 07:12:02;;;;;;;19.15;2.45;;;;;;;4.82;100.00;102561.06;5013391;28;20098;-81
2023/01/26 07:14:28;;;;;;;21.98;2.90;;;;;;;4.82;100.00;102549.72;5032378;28;20029;-81
2023/01/26 07:16:53;;;;;;;14.02;3.35;;;;;;;4.81;100.00;102561.94;5039570;28;20036;-81
2023/01/26 07:19:19;;;;;;;16.63;2.80;;;;;;;4.81;100.00;102559.31;4970100;28;20044;-81
2023/01/26 07:21:45;;;;;;;19.92;2.90;;;;;;;4.80;100.00;102565.47;5032715;28;20064;-81
2023/01/26 07:24:11;;;;;;;16.63;3.15;;;;;;;4.78;100.00;102564.69;5009055;28;20389;-81
2023/01/26 07:26:37;;;;;;;25.48;3.38;;;;;;;4.77;100.00;102560.34;5042612;28;20425;-81
2023/01/26 07:29:02;;;;;;;21.00;3.20;;;;;;;4.72;100.00;102563.13;5062580;28;20474;-81
2023/01/26 07:31:28;;;;;;;13.95;2.45;;;;;;;4.75;100.00;102563.91;5047404;28;20036;-81
2023/01/26 07:33:54;;;;;;;15.65;2.95;;;;;;;4.75;100.00;102561.28;5052626;28;20045;-80
2023/01/26 07:36:20;;;;;;;20.73;3.60;;;;;;;4.78;100.00;102562.06;5043758;28;20062;-81
2023/01/26 07:38:46;;;;;;;25.25;3.25;;;;;;;4.79;100.00;102562.91;5046458;28;20040;-81
2023/01/26 07:41:12;;;;;;;16.63;3.13;;;;;;;4.81;100.00;102561.09;5063197;28;20029;-81
2023/01/26 07:43:38;;;;;;;17.60;2.80;;;;;;;4.87;100.00;102574.00;5029312;28;20037;-81
2023/01/26 07:46:09;;;;;;;18.48;3.42;;;;;;;4.90;100.00;102578.25;5047004;28;20037;-80
2023/01/26 07:48:36;;;;;;;21.08;2.65;;;;;;;4.93;100.00;102578.16;5065820;28;20047;-80
2023/01/26 07:51:03;;;;;;;21.60;3.42;;;;;;;4.96;100.00;102572.78;5051729;28;20036;-81
2023/01/26 07:53:32;;;;;;;15.57;2.85;;;;;;;4.96;100.00;102578.03;5031444;28;20170;-81
2023/01/26 07:56:11;;;;;;;20.10;2.65;;;;;;;5.01;100.00;102580.50;5061850;28;20040;-81
2023/01/26 07:58:37;;;;;;;17.30;3.15;;;;;;;5.06;100.00;102589.06;4970164;28;20037;-81
2023/01/26 08:01:04;;;;;;;14.30;2.22;;;;;;;5.12;100.00;102586.22;5063058;28;20082;-81
2023/01/26 08:03:30;;;;;;;16.30;3.08;;;;;;;5.14;100.00;102584.41;5054488;28;20036;-81
2023/01/26 08:05:56;;;;;;;21.20;3.53;;;;;;;5.20;100.00;102588.56;5054800;28;20090;-80
2023/01/26 08:08:22;;;;;;;17.40;2.95;;;;;;;5.21;100.00;102582.38;5040688;28;20044;-80
2023/01/26 08:10:47;;;;;;;16.15;2.75;;;;;;;5.23;100.00;102580.56;5056448;28;20549;-80
2023/01/26 08:13:13;;;;;;;18.95;2.58;;;;;;;5.24;100.00;102581.44;5056349;28;20095;-81
2023/01/26 08:15:39;;;;;;;17.40;2.78;;;;;;;5.26;100.00;102576.97;5047864;28;20029;-81
2023/01/26 08:18:05;;;;;;;25.02;4.03;;;;;;;5.25;100.00;102581.38;5035437;28;20373;-81
2023/01/26 08:20:30;;;;;;;12.73;2.10;;;;;;;5.29;100.00;102575.09;5073936;28;20408;-80
2023/01/26 08:22:56;;;;;;;15.65;2.85;;;;;;;5.30;100.00;102581.22;5042352;28;20025;-80
2023/01/26 08:25:22;;;;;;;16.63;2.50;;;;;;;5.31;100.00;102588.16;5052213;28;20037;-80
2023/01/26 08:27:48;;;;;;;20.88;2.92;;;;;;;5.29;100.00;102575.09;5043510;28;20040;-81
2023/01/26 08:30:14;;;;;;;17.88;3.50;;;;;;;5.31;100.00;102573.28;5039025;28;20043;-80
2023/01/26 08:32:40;;;;;;;11.15;2.67;;;;;;;5.32;100.00;102572.38;5042671;28;20029;-81
2023/01/26 08:35:06;;;;;;;28.23;2.50;;;;;;;5.31;100.00;102570.66;5037661;28;20048;-81
2023/01/26 08:37:32;;;;;;;14.95;2.20;;;;;;;5.28;100.00;102576.03;4998023;28;20067;-81
2023/01/26 08:39:58;;;;;;;23.15;2.92;;;;;;;5.29;100.00;102579.47;5050958;28;20064;-81
2023/01/26 08:42:24;;;;;;;19.92;2.85;;;;;;;5.29;100.00;102589.97;5037804;28;20497;-81
2023/01/26 08:44:51;;;;;;;14.50;2.03;;;;;;;5.28;100.00;102578.66;5055046;28;20743;-81
2023/01/26 08:47:17;;;;;;;17.15;3.60;;;;;;;5.25;100.00;102581.38;5033922;28;20036;-81
2023/01/26 08:49:43;;;;;;;16.13;2.13;;;;;;;5.27;100.00;102573.47;5064976;28;20043;-80
2023/01/26 08:52:08;;;;;;;17.63;2.42;;;;;;;5.24;100.00;102579.66;5053450;28;20047;-80
2023/01/26 08:54:34;;;;;;;16.33;2.50;;;;;;;5.25;100.00;102583.16;5055895;28;20033;-80
2023/01/26 08:57:00;;;;;;;20.45;2.97;;;;;;;5.22;100.00;102587.59;5061948;28;20032;-81
2023/01/26 08:59:25;;;;;;;17.95;2.75;;;;;;;5.24;100.00;102590.16;5023700;28;20048;-81
2023/01/26 09:01:51;;;;;;;17.60;2.53;;;;;;;5.25;100.00;102585.75;5051233;28;20032;-81
2023/01/26 09:04:17;;;;;;;11.25;2.38;;;;;;;5.26;100.00;102583.09;5045546;28;20089;-82
2023/01/26 09:06:43;;;;;;;16.13;2.60;;;;;;;5.28;100.00;102588.28;5040848;28;20089;-81
2023/01/26 09:09:12;;;;;;;11.88;1.77;;;;;;;5.32;100.00;102589.88;5041081;28;20064;-81
2023/01/26 09:11:39;;;;;;;16.60;2.42;;;;;;;5.30;100.00;102586.47;5048114;28;20543;-81
2023/01/26 09:14:04;;;;;;;18.65;2.30;;;;;;;5.33;100.00;102587.22;5049180;28;20030;-81
2023/01/26 09:16:30;;;;;;;16.05;2.35;;;;;;;5.30;100.00;102579.44;5026499;28;20083;-81
2023/01/26 09:18:56;;;;;;;17.48;2.63;;;;;;;5.33;100.00;102587.22;5035754;28;20048;-81
2023/01/26 09:21:24;;;;;;;18.10;2.45;;;;;;;5.36;100.00;102595.84;5056515;28;20033;-81
2023/01/26 09:23:50;;;;;;;14.82;2.05;;;;;;;5.38;100.00;102601.91;5036587;28;20044;-81
2023/01/26 09:26:16;;;;;;;16.23;2.78;;;;;;;5.38;100.00;102602.78;5032575;28;20076;-81
2023/01/26 09:28:42;;;;;;;28.17;3.38;;;;;;;5.41;100.00;102602.66;5045235;28;20486;-81
2023/01/26 09:31:10;;;;;;;17.90;2.25;;;;;;;5.44;100.00;102604.31;5052694;28;20083;-81
2023/01/26 09:33:36;;;;;;;13.00;2.33;;;;;;;5.45;100.00;102613.88;5031853;28;20068;-81
2023/01/26 09:36:09;;;;;;;14.00;2.30;;;;;;;5.49;100.00;102614.63;5045650;28;20070;-82
2023/01/26 09:38:37;;;;;;;14.45;2.50;;;;;;;5.49;100.00;102610.25;5024805;28;20111;-81
2023/01/26 09:41:30;;;;;;;11.80;1.63;;;;;;;5.54;100.00;102607.44;5015897;28;20072;-81
2023/01/26 09:44:02;;;;;;;14.40;2.10;;;;;;;5.51;100.00;102603.16;5015230;28;20043;-81
2023/01/26 09:47:12;;;;;;;18.42;1.92;;;;;;;5.57;100.00;102608.16;5024743;28;20043;-81
2023/01/26 09:49:57;;;;;;;13.77;2.15;;;;;;;5.61;100.00;102618.53;5019091;28;20055;-80
2023/01/26 09:52:34;;;;;;;19.48;3.05;;;;;;;5.65;100.00;102620.16;5029247;28;20079;-80
2023/01/26 09:55:03;;;;;;;10.57;2.35;;;;;;;5.67;100.00;102621.81;5048579;28;20119;-81
2023/01/26 09:57:57;;;;;;;14.80;3.03;;;;;;;5.69;100.00;102617.34;5030593;28;20120;-79
2023/01/26 10:00:46;;;;;;;13.73;1.98;;;;;;;5.73;100.00;102617.25;5029501;28;20128;-82
2023/01/26 10:03:42;;;;;;;13.15;2.42;;;;;;;5.78;100.00;102623.19;5031462;28;20051;-81
2023/01/26 10:06:30;;;;;;;17.30;2.17;;;;;;;5.81;100.00;102616.03;5030858;28;20518;-81
2023/01/26 10:09:28;;;;;;;13.07;1.88;;;;;;;5.83;100.00;102632.56;5050887;28;20036;-81
2023/01/26 10:12:01;;;;;;;15.18;1.80;;;;;;;5.89;100.00;102628.84;5030460;28;20052;-80
2023/01/26 10:14:39;;;;;;;12.40;2.00;;;;;;;5.95;100.00;102630.41;5039155;28;20513;-81
2023/01/26 10:17:12;;;;;;;10.32;2.30;;;;;;;5.98;100.00;102632.91;5048531;28;20393;-81
2023/01/26 10:19:55;;;;;;;17.75;2.50;;;;;;;6.02;100.00;102631.03;5030876;28;20033;-82
2023/01/26 10:22:35;;;;;;;13.75;2.30;;;;;;;6.02;100.00;102629.22;5024751;28;20029;-81
2023/01/26 10:25:01;;;;;;;11.52;1.77;;;;;;;6.03;100.00;102649.34;5046676;28;20049;-81
2023/01/26 10:27:28;;;;;;;12.18;1.90;;;;;;;6.05;100.00;102642.28;5062874;28;20847;-81
2023/01/26 10:29:55;;;;;;;13.27;2.50;;;;;;;6.06;100.00;102651.88;5059429;28;20036;-81
2023/01/26 10:32:20;;;;;;;18.13;2.30;;;;;;;6.08;100.00;102643.94;5058855;28;20083;-81
2023/01/26 10:34:48;;;;;;;11.05;3.10;;;;;;;6.09;100.00;102648.25;5062511;28;20041;-82
2023/01/26 10:37:28;;;;;;;10.23;1.60;;;;;;;6.15;100.00;102647.16;5051617;28;20098;-81
2023/01/26 10:40:06;;;;;;;8.25;1.67;;;;;;;6.14;100.00;102651.56;5026920;28;20032;-80
2023/01/26 10:42:34;;;;;;;15.57;2.30;;;;;;;6.13;100.00;102647.22;5071556;28;20036;-80
2023/01/26 10:45:03;;;;;;;10.70;2.28;;;;;;;6.18;100.00;102639.19;5018692;28;20159;-82
2023/01/26 10:47:29;;;;;;;18.20;2.33;;;;;;;6.18;100.00;102653.16;5044934;28;20424;-81
2023/01/26 10:50:24;;;;;;;19.85;2.50;;;;;;;6.23;100.00;102654.75;5043902;28;20031;-80
2023/01/26 10:53:01;;;;;;;14.45;2.45;;;;;;;6.28;100.00;102648.38;5015342;28;20752;-80
2023/01/26 10:55:30;;;;;;;21.75;2.72;;;;;;;6.25;100.00;102661.66;5041502;28;20696;-81
2023/01/26 10:57:56;;;;;;;13.30;1.92;;;;;;;6.24;100.00;102661.72;5030652;28;20068;-81
2023/01/26 11:00:32;;;;;;;9.15;1.73;;;;;;;6.32;100.00;102667.53;5052289;28;20033;-80
2023/01/26 11:03:17;;;;;;;17.05;2.50;;;;;;;6.31;100.00;102661.41;5057287;28;20661;-80
2023/01/26 11:05:46;;;;;;;14.77;1.67;;;;;;;6.31;100.00;102661.41;5042248;28;20212;-81
2023/01/26 11:08:35;;;;;;;16.88;3.17;;;;;;;6.38;100.00;102669.03;5014783;28;20072;-81
2023/01/26 11:11:03;;;;;;;12.90;2.03;;;;;;;6.40;100.00;102659.34;5060845;28;20032;-81
2023/01/26 11:13:29;;;;;;;18.20;2.35;;;;;;;6.44;100.00;102660.91;5042183;28;20044;-81
2023/01/26 11:16:17;;;;;;;14.75;2.38;;;;;;;6.47;100.00;102649.44;5043484;28;20028;-81
2023/01/26 11:19:06;;;;;;;7.40;1.33;;;;;;;6.47;100.00;102652.91;5043351;28;20033;-81
2023/01/26 11:21:45;;;;;;;8.68;2.28;;;;;;;6.53;100.00;102642.13;5019973;28;20037;-82
2023/01/26 11:24:45;;;;;;;8.82;1.92;;;;;;;6.55;100.00;102650.81;5047207;28;20029;-81
2023/01/26 11:27:31;;;;;;;10.82;1.42;;;;;;;6.62;100.00;102637.44;5043529;28;20063;-82
2023/01/26 11:30:29;;;;;;;17.58;2.55;;;;;;;6.66;100.00;102641.63;5031669;28;20100;-82
2023/01/26 11:33:02;;;;;;;7.50;1.73;;;;;;;6.68;100.00;102645.06;5013984;28;20502;-81
2023/01/26 11:35:49;;;;;;;12.57;1.85;;;;;;;6.74;100.00;102639.53;5022117;28;20041;-80
2023/01/26 11:38:33;;;;;;;10.43;1.85;;;;;;;6.74;100.00;102636.91;5027889;28;20068;-80
2023/01/26 11:41:17;;;;;;;12.48;1.90;;;;;;;6.81;100.00;102638.38;5011922;28;20068;-81
2023/01/26 11:44:06;;;;;;;9.70;1.85;;;;;;;6.81;100.00;102640.13;5016680;28;20040;-81
2023/01/26 11:46:44;;;;;;;5.55;1.65;;;;;;;6.84;100.00;102637.38;5012179;28;20069;-81
2023/01/26 11:49:22;;;;;;;8.55;1.58;;;;;;;6.87;100.00;102642.50;5046905;28;20024;-81
2023/01/26 11:52:10;;;;;;;11.55;1.92;;;;;;;6.91;100.00;102638.81;5050836;28;20033;-81
2023/01/26 11:55:10;;;;;;;8.77;2.10;;;;;;;6.91;100.00;102636.19;5029702;28;20485;-82
2023/01/26 11:57:50;;;;;;;8.23;2.35;;;;;;;6.91;100.00;102630.09;5022482;28;20047;-81
2023/01/26 12:00:30;;;;;;;11.70;2.58;;;;;;;6.98;100.00;102630.66;5018985;28;20056;-81
2023/01/26 12:03:05;;;;;;;7.38;2.25;;;;;;;7.01;100.00;102623.50;5044442;28;20451;-81
2023/01/26 12:05:42;;;;;;;7.90;2.13;;;;;;;7.01;100.00;102620.88;5036783;28;20037;-80
2023/01/26 12:08:25;;;;;;;8.95;1.83;;;;;;;7.04;100.00;102622.53;5043563;28;20037;-80
2023/01/26 12:11:21;;;;;;;10.85;1.63;;;;;;;7.03;100.00;102621.66;5046113;28;20033;-81
2023/01/26 12:14:03;;;;;;;8.40;2.15;;;;;;;7.02;100.00;102624.38;5024590;28;20098;-81
2023/01/26 12:16:45;;;;;;;8.43;1.23;;;;;;;7.00;100.00;102620.94;5026975;28;20041;-82
2023/01/26 12:19:17;;;;;;;6.93;1.50;;;;;;;6.98;100.00;102614.88;5045328;28;20425;-81
2023/01/26 12:21:44;;;;;;;15.18;1.67;;;;;;;6.93;100.00;102628.22;5007782;28;20041;-81
2023/01/26 12:24:42;;;;;;;11.27;1.58;;;;;;;6.94;100.00;102627.34;5029775;28;20049;-81
2023/01/26 12:27:18;;;;;;;7.75;1.02;;;;;;;6.94;100.00;102627.34;5021898;28;20044;-82
2023/01/26 12:30:00;;;;;;;;;;;;;;;6.88;100.00;102630.22;5017540;28;20100;-81